createdAt,value
2022-09-03T00:00:28.688Z,59.26
2022-09-03T00:01:28.753Z,59.26
2022-09-03T00:02:28.779Z,59.26
2022-09-03T00:03:28.721Z,59.48
2022-09-03T00:04:28.725Z,59.48
2022-09-03T00:05:28.734Z,59.09
2022-09-03T00:06:28.749Z,59.26
2022-09-03T00:07:28.753Z,59.29
2022-09-03T00:08:28.760Z,59.26
2022-09-03T00:09:28.778Z,59.06
2022-09-03T00:10:28.778Z,59.16
2022-09-03T00:11:28.800Z,59.36
2022-09-03T00:12:28.804Z,59.38
2022-09-03T00:13:28.807Z,59.45
2022-09-03T00:14:28.821Z,59.26
2022-09-03T00:15:28.832Z,59.36
2022-09-03T00:16:28.897Z,59.36
2022-09-03T00:17:28.844Z,59.06
2022-09-03T00:18:28.850Z,59.26
2022-09-03T00:19:28.869Z,59.26
2022-09-03T00:20:28.871Z,59.45
2022-09-03T00:21:28.888Z,59.16
2022-09-03T00:22:28.896Z,59.26
2022-09-03T00:23:28.906Z,59.36
2022-09-03T00:24:28.907Z,59.64
2022-09-03T00:25:28.915Z,59.64
2022-09-03T00:26:28.950Z,59.83
2022-09-03T00:27:28.939Z,59.83
2022-09-03T00:28:28.943Z,59.45
2022-09-03T00:29:28.959Z,59.45
2022-09-03T00:30:28.964Z,59.55
2022-09-03T00:31:29.027Z,59.93
2022-09-03T00:32:28.982Z,59.55
2022-09-03T00:33:28.998Z,59.74
2022-09-03T00:34:28.999Z,59.93
2022-09-03T00:35:29.008Z,59.83
2022-09-03T00:36:29.018Z,59.74
2022-09-03T00:37:29.023Z,60.03
2022-09-03T00:38:29.033Z,60.22
2022-09-03T00:39:29.095Z,59.93
2022-09-03T00:40:29.059Z,60.12
2022-09-03T00:41:29.067Z,59.93
2022-09-03T00:42:29.076Z,60.12
2022-09-03T00:43:29.084Z,60.12
2022-09-03T00:44:29.087Z,60.03
2022-09-03T00:45:29.106Z,60.03
2022-09-03T00:46:29.190Z,60.03
2022-09-03T00:47:29.114Z,60.03
2022-09-03T00:48:29.268Z,60.12
2022-09-03T00:49:29.139Z,60.03
2022-09-03T00:50:29.158Z,60.22
2022-09-03T00:51:29.156Z,60.12
2022-09-03T00:52:33.385Z,60.12
2022-09-03T00:53:29.168Z,60.22
2022-09-03T00:54:29.183Z,60.12
2022-09-03T00:55:29.192Z,60.22
2022-09-03T00:56:29.195Z,60.12
2022-09-03T00:57:29.204Z,60.03
2022-09-03T00:58:29.210Z,60.12
2022-09-03T00:59:29.221Z,60.22
2022-09-03T01:00:29.236Z,60.19
2022-09-03T01:01:29.352Z,60.09
2022-09-03T01:02:29.407Z,60.67
2022-09-03T01:03:29.256Z,60.67
2022-09-03T01:04:29.274Z,60.28
2022-09-03T01:05:29.280Z,60.38
2022-09-03T01:06:29.289Z,60.19
2022-09-03T01:07:29.297Z,60.38
2022-09-03T01:08:29.300Z,60.09
2022-09-03T01:09:29.308Z,60.19
2022-09-03T01:10:29.318Z,60.28
2022-09-03T01:11:29.332Z,60.47
2022-09-03T01:12:29.343Z,60.28
2022-09-03T01:13:29.344Z,60.47
2022-09-03T01:14:29.360Z,60.57
2022-09-03T01:15:29.416Z,60.28
2022-09-03T01:16:29.371Z,60.76
2022-09-03T01:17:29.381Z,60.76
2022-09-03T01:18:29.388Z,60.76
2022-09-03T01:19:29.402Z,60.47
2022-09-03T01:20:29.405Z,60.67
2022-09-03T01:21:29.423Z,60.57
2022-09-03T01:22:29.422Z,60.57
2022-09-03T01:23:29.433Z,60.47
2022-09-03T01:24:29.446Z,60.67
2022-09-03T01:25:29.450Z,60.57
2022-09-03T01:26:29.462Z,60.76
2022-09-03T01:27:29.466Z,61.05
2022-09-03T01:28:29.474Z,61.15
2022-09-03T01:29:29.484Z,61.05
2022-09-03T01:30:29.498Z,61.15
2022-09-03T01:31:29.548Z,61.05
2022-09-03T01:32:29.516Z,60.96
2022-09-03T01:33:29.526Z,61.11
2022-09-03T01:34:29.526Z,61.43
2022-09-03T01:35:29.544Z,60.86
2022-09-03T01:36:29.543Z,61.05
2022-09-03T01:37:29.560Z,60.86
2022-09-03T01:38:29.569Z,60.86
2022-09-03T01:39:29.652Z,61.34
2022-09-03T01:40:29.580Z,61.24
2022-09-03T01:41:29.590Z,61.24
2022-09-03T01:42:29.602Z,60.86
2022-09-03T01:43:29.604Z,61.24
2022-09-03T01:44:29.621Z,61.40
2022-09-03T01:45:29.620Z,61.21
2022-09-03T01:46:29.692Z,61.79
2022-09-03T01:47:29.645Z,61.60
2022-09-03T01:48:29.655Z,61.60
2022-09-03T01:49:29.654Z,61.60
2022-09-03T01:50:29.671Z,61.69
2022-09-03T01:51:29.679Z,61.79
2022-09-03T01:52:29.691Z,61.69
2022-09-03T01:53:29.689Z,61.50
2022-09-03T01:54:29.706Z,61.60
2022-09-03T01:55:29.708Z,61.60
2022-09-03T01:56:29.714Z,61.88
2022-09-03T01:57:35.165Z,61.69
2022-09-03T01:58:29.731Z,61.79
2022-09-03T01:59:29.742Z,61.69
2022-09-03T02:00:29.756Z,61.79
2022-09-03T02:01:29.853Z,61.60
2022-09-03T02:02:29.795Z,61.79
2022-09-03T02:03:29.776Z,62.17
2022-09-03T02:04:29.790Z,61.60
2022-09-03T02:05:29.801Z,61.60
2022-09-03T02:06:29.807Z,61.98
2022-09-03T02:07:29.810Z,61.60
2022-09-03T02:08:29.819Z,61.60
2022-09-03T02:09:32.661Z,61.50
2022-09-03T02:10:29.841Z,62.07
2022-09-03T02:11:29.843Z,62.46
2022-09-03T02:12:29.860Z,61.79
2022-09-03T02:13:29.860Z,62.17
2022-09-03T02:14:29.868Z,62.46
2022-09-03T02:15:29.885Z,62.46
2022-09-03T02:16:29.892Z,62.65
2022-09-03T02:17:29.902Z,62.17
2022-09-03T02:18:29.904Z,62.46
2022-09-03T02:19:29.912Z,62.55
2022-09-03T02:20:29.927Z,62.84
2022-09-03T02:21:29.936Z,62.84
2022-09-03T02:22:29.935Z,62.84
2022-09-03T02:23:29.947Z,62.46
2022-09-03T02:24:29.953Z,62.55
2022-09-03T02:25:29.971Z,62.74
2022-09-03T02:26:29.976Z,62.36
2022-09-03T02:27:29.986Z,62.65
2022-09-03T02:28:30.213Z,62.55
2022-09-03T02:29:30.002Z,62.55
2022-09-03T02:30:30.062Z,62.55
2022-09-03T02:31:30.075Z,62.36
2022-09-03T02:32:30.029Z,62.84
2022-09-03T02:33:30.036Z,62.74
2022-09-03T02:34:30.038Z,62.93
2022-09-03T02:35:30.054Z,62.74
2022-09-03T02:36:30.055Z,62.65
2022-09-03T02:37:30.063Z,62.74
2022-09-03T02:38:30.078Z,63.03
2022-09-03T02:39:30.141Z,63.00
2022-09-03T02:40:30.097Z,63.03
2022-09-03T02:41:30.103Z,63.03
2022-09-03T02:42:30.105Z,63.10
2022-09-03T02:43:30.120Z,63.42
2022-09-03T02:44:30.130Z,63.32
2022-09-03T02:45:30.137Z,63.39
2022-09-03T02:46:30.241Z,63.42
2022-09-03T02:47:30.154Z,63.42
2022-09-03T02:48:30.160Z,63.32
2022-09-03T02:49:30.164Z,63.42
2022-09-03T02:50:30.171Z,63.32
2022-09-03T02:51:30.181Z,63.03
2022-09-03T02:52:30.195Z,63.32
2022-09-03T02:53:30.206Z,63.51
2022-09-03T02:54:30.204Z,63.32
2022-09-03T02:55:30.222Z,63.51
2022-09-03T02:56:30.228Z,63.22
2022-09-03T02:57:30.239Z,63.03
2022-09-03T02:58:30.244Z,63.03
2022-09-03T02:59:30.248Z,63.03
2022-09-03T03:00:30.261Z,63.03
2022-09-03T03:01:30.338Z,63.32
2022-09-03T03:02:30.342Z,63.19
2022-09-03T03:03:30.278Z,63.51
2022-09-03T03:04:30.289Z,63.29
2022-09-03T03:05:30.296Z,63.32
2022-09-03T03:06:30.305Z,63.29
2022-09-03T03:07:30.313Z,63.19
2022-09-03T03:08:30.334Z,63.29
2022-09-03T03:09:30.328Z,63.48
2022-09-03T03:10:30.346Z,63.86
2022-09-03T03:11:30.352Z,63.76
2022-09-03T03:12:30.355Z,63.76
2022-09-03T03:13:30.369Z,63.76
2022-09-03T03:14:30.378Z,64.15
2022-09-03T03:15:30.377Z,64.05
2022-09-03T03:16:30.448Z,64.15
2022-09-03T03:17:30.402Z,64.15
2022-09-03T03:18:30.413Z,64.05
2022-09-03T03:19:30.410Z,64.25
2022-09-03T03:20:30.421Z,64.34
2022-09-03T03:21:30.432Z,64.43
2022-09-03T03:22:30.442Z,64.53
2022-09-03T03:23:30.453Z,64.63
2022-09-03T03:24:30.452Z,64.25
2022-09-03T03:25:30.469Z,63.96
2022-09-03T03:26:30.469Z,64.15
2022-09-03T03:27:30.477Z,64.43
2022-09-03T03:28:30.492Z,64.82
2022-09-03T03:29:30.494Z,64.53
2022-09-03T03:30:30.518Z,64.63
2022-09-03T03:31:30.518Z,64.34
2022-09-03T03:32:30.518Z,64.72
2022-09-03T03:33:30.527Z,64.82
2022-09-03T03:34:30.533Z,64.63
2022-09-03T03:35:30.552Z,64.63
2022-09-03T03:36:30.557Z,64.43
2022-09-03T03:37:30.768Z,64.43
2022-09-03T03:38:30.575Z,64.63
2022-09-03T03:39:30.678Z,64.53
2022-09-03T03:40:30.594Z,64.53
2022-09-03T03:41:30.590Z,64.63
2022-09-03T03:42:30.601Z,64.72
2022-09-03T03:43:30.616Z,64.53
2022-09-03T03:44:30.616Z,64.63
2022-09-03T03:45:30.633Z,64.63
2022-09-03T03:46:30.632Z,64.53
2022-09-03T03:47:30.648Z,64.43
2022-09-03T03:48:30.650Z,65.11
2022-09-03T03:49:30.666Z,64.53
2022-09-03T03:50:30.671Z,65.20
2022-09-03T03:51:30.671Z,65.11
2022-09-03T03:52:30.689Z,64.63
2022-09-03T03:53:30.698Z,65.11
2022-09-03T03:54:30.698Z,64.53
2022-09-03T03:55:35.015Z,64.72
2022-09-03T03:56:30.711Z,64.92
2022-09-03T03:57:30.731Z,64.53
2022-09-03T03:58:30.728Z,65.01
2022-09-03T03:59:30.738Z,65.01
2022-09-03T04:00:30.752Z,64.72
2022-09-03T04:01:30.822Z,64.63
2022-09-03T04:02:30.821Z,64.63
2022-09-03T04:03:30.772Z,65.49
2022-09-03T04:04:30.787Z,65.39
2022-09-03T04:05:33.585Z,64.72
2022-09-03T04:06:30.800Z,65.20
2022-09-03T04:07:30.811Z,65.20
2022-09-03T04:08:30.809Z,65.11
2022-09-03T04:09:30.821Z,65.30
2022-09-03T04:10:30.837Z,65.11
2022-09-03T04:11:30.835Z,64.82
2022-09-03T04:12:30.844Z,64.92
2022-09-03T04:13:30.858Z,65.58
2022-09-03T04:14:30.866Z,65.58
2022-09-03T04:15:30.867Z,65.68
2022-09-03T04:16:30.899Z,65.58
2022-09-03T04:17:30.882Z,65.88
2022-09-03T04:18:30.899Z,65.97
2022-09-03T04:19:30.898Z,65.97
2022-09-03T04:20:30.912Z,66.06
2022-09-03T04:21:30.924Z,65.68
2022-09-03T04:22:30.931Z,66.06
2022-09-03T04:23:30.931Z,65.88
2022-09-03T04:24:30.940Z,65.88
2022-09-03T04:25:30.955Z,66.06
2022-09-03T04:26:30.956Z,65.97
2022-09-03T04:27:30.970Z,66.35
2022-09-03T04:28:30.975Z,66.06
2022-09-03T04:29:30.980Z,66.35
2022-09-03T04:30:31.037Z,66.16
2022-09-03T04:31:31.012Z,66.06
2022-09-03T04:32:31.011Z,66.45
2022-09-03T04:33:31.020Z,65.78
2022-09-03T04:34:31.018Z,66.06
2022-09-03T04:35:31.037Z,66.06
2022-09-03T04:36:31.066Z,65.88
2022-09-03T04:37:31.045Z,65.97
2022-09-03T04:38:31.054Z,66.45
2022-09-03T04:39:31.104Z,66.45
2022-09-03T04:40:31.067Z,66.45
2022-09-03T04:41:31.079Z,66.35
2022-09-03T04:42:31.082Z,66.54
2022-09-03T04:43:31.094Z,66.51
2022-09-03T04:44:31.107Z,66.35
2022-09-03T04:45:31.181Z,66.41
2022-09-03T04:46:31.211Z,66.54
2022-09-03T04:47:31.123Z,66.41
2022-09-03T04:48:31.141Z,66.54
2022-09-03T04:49:31.140Z,66.51
2022-09-03T04:50:31.148Z,66.93
2022-09-03T04:51:31.207Z,67.02
2022-09-03T04:52:31.172Z,66.93
2022-09-03T04:53:31.171Z,66.83
2022-09-03T04:54:31.187Z,66.64
2022-09-03T04:55:31.187Z,66.74
2022-09-03T04:56:31.197Z,66.80
2022-09-03T04:57:31.202Z,66.93
2022-09-03T04:58:31.211Z,66.74
2022-09-03T04:59:31.226Z,66.93
2022-09-03T05:00:31.236Z,66.83
2022-09-03T05:01:31.325Z,66.93
2022-09-03T05:02:31.305Z,67.11
2022-09-03T05:03:31.251Z,66.83
2022-09-03T05:04:31.265Z,67.02
2022-09-03T05:05:31.268Z,67.02
2022-09-03T05:06:31.273Z,66.83
2022-09-03T05:07:31.282Z,66.83
2022-09-03T05:08:31.296Z,66.93
2022-09-03T05:09:31.307Z,66.83
2022-09-03T05:10:31.316Z,66.93
2022-09-03T05:11:31.322Z,66.93
2022-09-03T05:12:31.328Z,67.21
2022-09-03T05:13:31.337Z,67.31
2022-09-03T05:14:31.343Z,67.21
2022-09-03T05:15:31.347Z,67.11
2022-09-03T05:16:31.639Z,67.11
2022-09-03T05:17:34.076Z,66.74
2022-09-03T05:18:31.370Z,66.93
2022-09-03T05:19:31.379Z,67.02
2022-09-03T05:20:31.384Z,66.83
2022-09-03T05:21:31.488Z,66.74
2022-09-03T05:22:31.411Z,66.74
2022-09-03T05:23:34.372Z,66.74
2022-09-03T05:24:31.426Z,66.93
2022-09-03T05:25:31.437Z,66.93
2022-09-03T05:26:31.441Z,67.02
2022-09-03T05:27:31.447Z,66.64
2022-09-03T05:28:31.458Z,67.02
2022-09-03T05:29:31.464Z,66.93
2022-09-03T05:30:31.473Z,66.74
2022-09-03T05:31:31.729Z,67.02
2022-09-03T05:32:31.489Z,66.83
2022-09-03T05:33:31.488Z,67.02
2022-09-03T05:34:31.497Z,66.64
2022-09-03T05:35:31.504Z,66.64
2022-09-03T05:36:31.529Z,66.74
2022-09-03T05:37:31.532Z,66.64
2022-09-03T05:38:31.529Z,67.21
2022-09-03T05:39:31.617Z,66.74
2022-09-03T05:40:31.553Z,67.21
2022-09-03T05:41:31.563Z,66.74
2022-09-03T05:42:31.566Z,66.74
2022-09-03T05:43:31.567Z,67.41
2022-09-03T05:44:31.585Z,67.21
2022-09-03T05:45:31.626Z,67.21
2022-09-03T05:46:32.058Z,67.50
2022-09-03T05:47:31.603Z,67.60
2022-09-03T05:48:31.609Z,67.31
2022-09-03T05:49:31.623Z,67.50
2022-09-03T05:50:31.624Z,67.41
2022-09-03T05:51:31.632Z,67.50
2022-09-03T05:52:31.650Z,67.41
2022-09-03T05:53:31.654Z,67.60
2022-09-03T05:54:31.663Z,67.50
2022-09-03T05:55:31.663Z,67.60
2022-09-03T05:56:31.678Z,67.50
2022-09-03T05:58:24.253Z,67.15
2022-09-03T05:59:24.259Z,66.74
2022-09-03T06:00:24.269Z,67.02
2022-09-03T06:01:24.273Z,66.83
2022-09-03T06:02:24.430Z,67.25
2022-09-03T06:03:24.577Z,67.25
2022-09-03T06:04:24.300Z,67.15
2022-09-03T06:05:24.298Z,66.74
2022-09-03T06:06:24.318Z,67.11
2022-09-03T06:07:24.315Z,67.21
2022-09-03T06:08:24.324Z,67.50
2022-09-03T06:09:24.339Z,67.50
2022-09-03T06:10:27.022Z,67.41
2022-09-03T06:11:24.347Z,67.50
2022-09-03T06:12:24.356Z,67.44
2022-09-03T06:13:24.556Z,67.54
2022-09-03T06:14:24.370Z,67.41
2022-09-03T06:15:24.387Z,67.50
2022-09-03T06:16:29.030Z,67.34
2022-09-03T06:17:24.395Z,67.34
2022-09-03T06:18:24.529Z,66.83
2022-09-03T06:19:24.412Z,67.72
2022-09-03T06:20:24.420Z,67.50
2022-09-03T06:21:24.429Z,67.63
2022-09-03T06:22:24.441Z,67.25
2022-09-03T06:23:24.452Z,67.54
2022-09-03T06:24:26.483Z,67.44
2022-09-03T06:25:24.460Z,67.44
2022-09-03T06:26:24.474Z,67.44
2022-09-03T06:27:24.484Z,67.63
2022-09-03T06:28:24.759Z,67.63
2022-09-03T06:29:24.492Z,67.54
2022-09-03T06:30:24.508Z,67.41
2022-09-03T06:31:24.660Z,67.82
2022-09-03T06:32:24.517Z,67.72
2022-09-03T06:33:24.622Z,67.63
2022-09-03T06:34:24.542Z,68.11
2022-09-03T06:35:24.544Z,67.91
2022-09-03T06:36:24.549Z,67.63
2022-09-03T06:37:24.557Z,67.44
2022-09-03T06:38:24.696Z,67.15
2022-09-03T06:39:24.639Z,67.34
2022-09-03T06:40:24.583Z,67.54
2022-09-03T06:41:24.591Z,67.44
2022-09-03T06:42:24.604Z,67.18
2022-09-03T06:43:24.615Z,67.28
2022-09-03T06:44:24.614Z,67.28
2022-09-03T06:45:24.671Z,67.66
2022-09-03T06:46:24.630Z,67.57
2022-09-03T06:47:24.647Z,67.28
2022-09-03T06:48:24.790Z,67.18
2022-09-03T06:49:24.653Z,67.18
2022-09-03T06:50:24.703Z,66.99
2022-09-03T06:51:24.678Z,67.09
2022-09-03T06:52:24.687Z,67.38
2022-09-03T06:53:24.690Z,67.66
2022-09-03T06:54:24.703Z,67.28
2022-09-03T06:55:24.705Z,67.57
2022-09-03T06:56:24.713Z,67.18
2022-09-03T06:57:24.729Z,66.99
2022-09-03T06:58:24.891Z,67.38
2022-09-03T06:59:24.748Z,67.47
2022-09-03T07:00:24.753Z,67.28
2022-09-03T07:01:24.896Z,67.47
2022-09-03T07:02:27.456Z,67.57
2022-09-03T07:03:24.779Z,67.57
2022-09-03T07:04:29.115Z,67.76
2022-09-03T07:05:24.795Z,67.57
2022-09-03T07:10:33.970Z,66.93
2022-09-03T07:11:33.968Z,66.83
2022-09-03T07:12:33.980Z,66.93
2022-09-03T07:13:33.989Z,66.64
2022-09-03T07:14:35.007Z,66.55
2022-09-03T07:15:34.009Z,66.55
2022-09-03T07:16:34.093Z,66.55
2022-09-03T07:17:34.018Z,66.55
2022-09-03T07:18:36.656Z,66.55
2022-09-03T07:19:34.039Z,66.83
2022-09-03T07:20:34.051Z,65.88
2022-09-03T07:21:34.062Z,66.16
2022-09-03T07:22:34.057Z,66.06
2022-09-03T07:23:34.068Z,65.88
2022-09-03T07:24:34.081Z,66.39
2022-09-03T07:25:34.086Z,66.39
2022-09-03T07:26:34.091Z,65.91
2022-09-03T07:27:34.103Z,66.00
2022-09-03T07:28:34.106Z,66.19
2022-09-03T07:30:16.660Z,66.10
2022-09-03T07:31:16.670Z,65.72
2022-09-03T07:32:16.729Z,65.46
2022-09-03T07:33:16.684Z,65.65
2022-09-03T07:34:17.209Z,64.98
2022-09-03T07:35:59.252Z,65.27
2022-09-03T07:36:59.254Z,64.79
2022-09-03T07:37:59.269Z,64.98
2022-09-03T07:38:59.272Z,64.79
2022-09-03T07:39:59.340Z,64.59
2022-09-03T07:40:59.286Z,64.59
2022-09-03T07:41:59.305Z,63.92
2022-09-03T07:44:39.429Z,64.05
2022-09-03T07:45:39.432Z,64.05
2022-09-03T07:46:39.477Z,64.05
2022-09-03T07:52:23.692Z,62.29
2022-09-03T07:53:23.700Z,62.48
2022-09-03T07:54:23.701Z,62.10
2022-09-03T07:55:23.718Z,61.94
2022-09-03T07:56:23.725Z,61.49
2022-09-03T07:57:23.733Z,61.13
2022-09-03T07:58:23.862Z,60.64
2022-09-03T07:59:23.743Z,58.19
2022-09-03T08:00:23.808Z,56.99
2022-09-03T08:01:23.760Z,55.24
2022-09-03T08:02:23.771Z,53.75
2022-09-03T08:03:23.838Z,51.16
2022-09-03T08:04:23.788Z,50.82
2022-09-03T08:05:23.803Z,50.68
2022-09-03T08:07:06.350Z,48.49
2022-09-03T08:08:06.360Z,46.88
2022-09-03T08:09:06.379Z,46.13
2022-09-03T08:10:06.385Z,44.59
2022-09-03T08:11:06.385Z,43.93
2022-09-03T08:12:06.402Z,42.66
2022-09-03T08:13:06.410Z,42.20
2022-09-03T08:14:06.835Z,42.10
2022-09-03T08:15:06.427Z,41.25
2022-09-03T08:16:06.457Z,41.15
2022-09-03T08:17:06.447Z,40.88
2022-09-03T08:18:06.454Z,39.94
2022-09-03T08:19:06.457Z,38.67
2022-09-03T08:20:06.468Z,38.28
2022-09-03T08:21:06.476Z,38.01
2022-09-03T08:22:09.310Z,37.71
2022-09-03T08:23:06.496Z,37.04
2022-09-03T08:24:06.513Z,36.65
2022-09-03T08:25:06.523Z,36.46
2022-09-03T08:26:06.529Z,35.58
2022-09-03T08:27:06.534Z,35.77
2022-09-03T08:28:06.548Z,35.28
2022-09-03T08:29:06.551Z,35.60
2022-09-03T08:30:06.568Z,34.91
2022-09-03T08:31:06.631Z,35.01
2022-09-03T08:32:06.581Z,34.83
2022-09-03T08:33:06.596Z,34.65
2022-09-03T08:34:06.994Z,34.06
2022-09-03T08:35:06.608Z,33.98
2022-09-03T08:36:06.620Z,33.22
2022-09-03T08:37:06.636Z,32.92
2022-09-03T08:38:06.638Z,32.64
2022-09-03T08:39:06.653Z,31.96
2022-09-03T08:40:06.660Z,31.27
2022-09-03T08:43:32.541Z,31.14
2022-09-03T08:44:32.547Z,31.24
2022-09-03T08:45:32.559Z,31.34
2022-09-03T15:34:07.041Z,39.69
2022-09-03T15:35:07.047Z,39.49
2022-09-03T15:37:19.682Z,39.39
2022-09-03T15:38:19.698Z,39.69
2022-09-03T15:39:19.732Z,39.69
2022-09-03T15:40:19.739Z,39.49
2022-09-03T15:41:19.759Z,39.49
2022-09-03T15:42:19.773Z,39.59
2022-09-03T15:44:07.356Z,39.67
2022-09-03T15:45:07.362Z,39.57
2022-09-03T15:46:07.435Z,39.67
2022-09-03T15:47:09.504Z,39.57
2022-09-03T15:48:07.415Z,39.76
2022-09-03T15:49:07.431Z,39.95
2022-09-03T15:50:07.448Z,39.86
2022-09-03T15:51:07.464Z,40.05
2022-09-03T15:52:07.485Z,40.34
2022-09-03T15:53:07.499Z,40.44
2022-09-03T15:54:07.514Z,40.25
2022-09-03T15:55:07.543Z,40.15
2022-09-03T15:56:11.665Z,40.25
2022-09-03T15:57:07.569Z,40.34
2022-09-03T15:58:07.589Z,40.23
2022-09-03T15:59:07.599Z,40.53
2022-09-03T16:00:07.617Z,40.81
2022-09-03T16:01:07.694Z,40.90
2022-09-03T16:02:07.654Z,40.61
2022-09-03T16:03:07.746Z,40.71
2022-09-03T16:04:07.731Z,40.71
2022-09-03T16:05:07.703Z,41.19
2022-09-03T16:06:07.722Z,41.00
2022-09-03T16:07:07.728Z,41.19
2022-09-03T16:08:07.754Z,40.90
2022-09-03T16:09:07.760Z,40.98
2022-09-03T16:10:37.737Z,40.98
2022-09-03T16:11:07.799Z,41.17
2022-09-03T16:12:07.814Z,41.36
2022-09-03T16:13:07.843Z,41.56
2022-09-03T16:14:07.838Z,41.56
2022-09-03T16:15:07.856Z,41.56
2022-09-03T16:16:07.933Z,41.75
2022-09-03T16:20:13.853Z,41.75
2022-09-03T16:21:13.865Z,41.75
2022-09-03T16:22:13.882Z,41.75
2022-09-03T16:23:13.889Z,41.48
2022-09-03T16:29:45.741Z,41.75
2022-09-03T16:30:45.749Z,41.67
2022-09-03T16:31:45.812Z,41.75
2022-09-03T16:32:45.776Z,41.56
2022-09-03T16:33:45.795Z,41.56
2022-09-03T16:34:45.807Z,41.56
2022-09-03T16:35:45.827Z,41.46
2022-09-03T16:36:45.845Z,41.66
2022-09-03T16:37:45.857Z,41.66
2022-09-03T16:38:45.867Z,41.75
2022-09-03T16:39:45.951Z,41.56
2022-09-03T16:40:45.894Z,41.94
2022-09-03T16:41:45.909Z,41.85
2022-09-03T16:42:45.933Z,41.94
2022-09-03T16:43:46.197Z,42.04
2022-09-03T16:44:45.953Z,41.94
2022-09-03T16:45:46.054Z,41.94
2022-09-03T16:46:45.981Z,42.14
2022-09-03T16:47:46.002Z,42.33
2022-09-03T16:48:46.017Z,42.33
2022-09-03T16:49:46.023Z,42.41
2022-09-03T16:50:46.043Z,42.41
2022-09-03T16:51:46.060Z,42.31
2022-09-03T16:52:46.071Z,42.41
2022-09-03T16:53:46.093Z,42.21
2022-09-03T16:54:51.846Z,42.41
2022-09-03T16:55:46.110Z,42.50
2022-09-03T16:56:46.123Z,42.70
2022-09-03T16:57:46.144Z,42.99
2022-09-03T16:58:46.151Z,42.29
2022-09-03T16:59:46.166Z,42.50
2022-09-03T17:00:46.342Z,42.77
2022-09-03T17:01:46.394Z,43.35
2022-09-03T17:02:46.236Z,43.16
2022-09-03T17:03:46.227Z,43.16
2022-09-03T17:04:46.237Z,43.06
2022-09-03T17:05:46.255Z,42.87
2022-09-03T17:06:46.262Z,42.97
2022-09-03T17:07:46.275Z,43.26
2022-09-03T17:08:46.290Z,43.26
2022-09-03T17:09:46.311Z,43.35
2022-09-03T17:10:46.325Z,43.54
2022-09-03T17:11:46.338Z,43.64
2022-09-03T17:12:46.344Z,43.45
2022-09-03T17:13:46.359Z,43.45
2022-09-03T17:14:46.378Z,43.45
2022-09-03T17:15:46.461Z,43.54
2022-09-03T17:16:46.451Z,43.54
2022-09-03T17:17:46.414Z,43.64
2022-09-03T17:18:46.434Z,43.45
2022-09-03T17:19:46.443Z,43.64
2022-09-03T17:20:49.425Z,44.12
2022-09-03T17:21:46.476Z,44.03
2022-09-03T17:22:46.487Z,43.93
2022-09-03T17:23:46.501Z,43.74
2022-09-03T17:24:46.513Z,43.93
2022-09-03T17:25:46.520Z,44.03
2022-09-03T17:26:46.535Z,44.01
2022-09-03T17:27:46.547Z,44.49
2022-09-03T17:28:46.566Z,44.39
2022-09-03T17:29:46.573Z,44.49
2022-09-03T17:30:46.587Z,44.20
2022-09-03T17:31:46.695Z,44.59
2022-09-03T17:32:46.623Z,44.49
2022-09-03T17:33:46.637Z,44.68
2022-09-03T17:34:46.640Z,44.68
2022-09-03T17:35:46.662Z,44.59
2022-09-03T17:36:46.673Z,44.78
2022-09-03T17:40:22.570Z,44.87
2022-09-03T17:44:03.482Z,45.45
2022-09-03T17:45:03.494Z,45.55
2022-09-03T17:46:03.513Z,45.36
2022-09-03T17:47:03.519Z,45.36
2022-09-03T17:48:03.531Z,45.36
2022-09-03T17:49:03.546Z,45.55
2022-09-03T17:50:03.565Z,45.45
2022-09-03T17:51:03.569Z,45.62
2022-09-03T17:52:03.588Z,45.43
2022-09-03T17:53:03.596Z,45.75
2022-09-03T17:54:03.607Z,45.53
2022-09-03T17:55:03.622Z,45.62
2022-09-03T17:56:03.633Z,45.72
2022-09-03T17:57:03.647Z,45.82
2022-09-03T17:58:03.666Z,45.92
2022-09-03T17:59:03.671Z,46.30
2022-09-03T18:00:03.685Z,46.01
2022-09-03T18:01:03.696Z,46.20
2022-09-03T18:02:03.756Z,46.30
2022-09-03T18:03:03.729Z,45.92
2022-09-03T18:04:05.513Z,46.40
2022-09-03T18:05:03.748Z,46.30
2022-09-03T18:06:56.327Z,46.11
2022-09-03T18:07:56.349Z,46.20
2022-09-03T18:08:56.357Z,46.20
2022-09-03T18:09:56.363Z,46.30
2022-09-03T18:13:52.314Z,46.86
2022-09-03T18:18:45.824Z,47.05
2022-09-03T18:19:45.837Z,46.95
2022-09-03T18:20:45.855Z,47.53
2022-09-03T18:21:45.865Z,47.53
2022-09-03T18:22:45.870Z,47.24
2022-09-03T18:23:45.884Z,47.44
2022-09-03T18:24:45.895Z,47.05
2022-09-03T18:25:45.906Z,47.24
2022-09-03T18:26:45.921Z,47.44
2022-09-03T18:27:45.943Z,47.34
2022-09-03T18:28:45.953Z,47.92
2022-09-03T18:29:45.956Z,47.92
2022-09-03T18:30:46.702Z,47.82
2022-09-03T18:31:46.087Z,47.70
2022-09-03T18:32:45.994Z,47.44
2022-09-03T18:33:46.016Z,47.63
2022-09-03T18:34:46.022Z,47.89
2022-09-03T18:35:46.040Z,47.99
2022-09-03T18:36:46.050Z,47.89
2022-09-03T18:37:46.062Z,47.72
2022-09-03T18:38:46.074Z,47.99
2022-09-03T18:39:46.169Z,47.89
2022-09-03T18:40:46.095Z,47.89
2022-09-03T18:41:46.111Z,48.38
2022-09-03T18:42:46.124Z,48.08
2022-09-03T18:43:46.136Z,48.08
2022-09-03T18:44:46.147Z,48.18
2022-09-03T18:46:15.143Z,48.47
2022-09-03T18:48:05.937Z,48.38
2022-09-03T18:48:46.231Z,48.76
2022-09-03T18:49:46.207Z,48.76
2022-09-03T18:50:46.220Z,48.76
2022-09-03T18:51:46.232Z,48.47
2022-09-03T18:52:46.238Z,48.66
2022-09-03T18:53:46.256Z,48.66
2022-09-03T18:55:06.702Z,48.57
2022-09-03T18:55:46.272Z,48.47
2022-09-03T18:56:46.287Z,49.24
2022-09-03T18:57:46.295Z,49.05
2022-09-03T18:58:46.308Z,48.95
2022-09-03T18:59:46.330Z,49.15
2022-09-03T19:00:46.340Z,48.76
2022-09-03T19:01:46.501Z,48.86
2022-09-03T19:02:46.448Z,49.15
2022-09-03T19:03:46.368Z,49.05
2022-09-03T19:04:46.388Z,48.86
2022-09-03T19:05:46.393Z,49.24
2022-09-03T19:06:46.404Z,49.24
2022-09-03T19:07:46.425Z,48.95
2022-09-03T19:08:46.428Z,49.02
2022-09-03T19:09:46.447Z,49.02
2022-09-03T19:10:46.460Z,49.32
2022-09-03T19:11:46.464Z,49.32
2022-09-03T19:12:48.857Z,49.12
2022-09-03T19:13:46.491Z,49.12
2022-09-03T19:14:46.499Z,49.22
2022-09-03T19:15:46.544Z,49.22
2022-09-03T19:16:46.530Z,49.22
2022-09-03T19:17:46.543Z,49.22
2022-09-03T19:18:46.559Z,49.41
2022-09-03T19:19:46.566Z,49.70
2022-09-03T19:20:46.571Z,49.99
2022-09-03T19:21:46.590Z,49.32
2022-09-03T19:22:46.597Z,49.60
2022-09-03T19:23:46.607Z,49.60
2022-09-03T19:24:46.625Z,49.51
2022-09-03T19:25:46.632Z,49.99
2022-09-03T19:26:46.642Z,49.70
2022-09-03T19:27:59.591Z,49.79
2022-09-03T19:28:46.667Z,49.60
2022-09-03T19:29:46.682Z,49.79
2022-09-03T19:30:50.683Z,50.18
2022-09-03T19:31:46.701Z,50.57
2022-09-03T19:32:46.719Z,50.18
2022-09-03T19:33:46.732Z,50.47
2022-09-03T19:34:46.736Z,50.18
2022-09-03T19:35:46.757Z,50.18
2022-09-03T19:36:46.762Z,50.09
2022-09-03T19:37:46.778Z,50.09
2022-09-03T19:38:46.790Z,50.18
2022-09-03T19:39:46.844Z,50.37
2022-09-03T19:40:46.807Z,50.37
2022-09-03T19:41:46.818Z,50.27
2022-09-03T19:42:46.835Z,50.45
2022-09-03T19:43:46.842Z,50.27
2022-09-03T19:44:46.862Z,50.47
2022-09-03T19:45:46.863Z,50.35
2022-09-03T19:46:46.877Z,50.63
2022-09-03T19:47:46.886Z,50.73
2022-09-03T19:48:46.907Z,50.63
2022-09-03T19:49:46.911Z,50.45
2022-09-03T19:50:47.915Z,50.35
2022-09-03T19:51:46.941Z,50.35
2022-09-03T19:52:46.948Z,50.73
2022-09-03T19:53:46.963Z,51.12
2022-09-03T19:54:46.969Z,51.12
2022-09-03T19:55:46.987Z,51.12
2022-09-03T19:56:46.992Z,51.02
2022-09-03T19:57:47.010Z,51.12
2022-09-03T19:58:47.194Z,51.12
2022-09-03T19:59:47.026Z,50.63
2022-09-03T20:00:47.037Z,50.73
2022-09-03T20:01:47.116Z,51.12
2022-09-03T20:02:47.095Z,51.12
2022-09-03T20:03:47.071Z,50.93
2022-09-03T20:04:47.082Z,51.12
2022-09-03T20:05:47.094Z,51.31
2022-09-03T20:06:47.104Z,51.31
2022-09-03T20:07:47.124Z,51.31
2022-09-03T20:08:47.136Z,51.19
2022-09-03T20:09:47.141Z,51.50
2022-09-03T20:10:47.149Z,51.76
2022-09-03T20:11:47.171Z,51.48
2022-09-03T20:12:47.173Z,51.57
2022-09-03T20:13:47.197Z,51.57
2022-09-03T20:14:47.194Z,51.67
2022-09-03T20:15:47.272Z,51.86
2022-09-03T20:16:47.217Z,51.96
2022-09-03T20:17:47.230Z,51.57
2022-09-03T20:18:47.239Z,51.57
2022-09-03T20:19:47.253Z,51.57
2022-09-03T20:20:47.263Z,51.86